sensor_id;sensor_type;location;lat;lon;timestamp;pressure;altitude;pressure_sealevel;temperature;humidity
60371;BME280;48550;40.588;49.684;2023-03-30T00:02:19;100375.53;;;9.14;100.00
60371;BME280;48550;40.588;49.684;2023-03-30T00:04:50;100369.56;;;9.00;100.00
60371;BME280;48550;40.588;49.684;2023-03-30T00:07:17;100362.16;;;8.72;100.00
60371;BME280;48550;40.588;49.684;2023-03-30T00:09:44;100368.47;;;8.78;100.00
60371;BME280;48550;40.588;49.684;2023-03-30T00:12:12;100356.38;;;8.87;100.00
60371;BME280;48550;40.588;49.684;2023-03-30T00:14:40;100350.94;;;8.94;100.00
60371;BME280;48550;40.588;49.684;2023-03-30T00:17:08;100347.53;;;8.86;100.00
60371;BME280;48550;40.588;49.684;2023-03-30T00:19:34;100353.94;;;8.85;100.00
60371;BME280;48550;40.588;49.684;2023-03-30T00:22:07;100360.16;;;9.09;100.00
60371;BME280;48550;40.588;49.684;2023-03-30T00:24:34;100369.59;;;9.35;100.00
60371;BME280;48550;40.588;49.684;2023-03-30T00:27:02;100376.69;;;9.41;100.00
60371;BME280;48550;40.588;49.684;2023-03-30T00:29:28;100391.50;;;9.55;100.00
60371;BME280;48550;40.588;49.684;2023-03-30T00:31:53;100374.81;;;9.65;100.00
60371;BME280;48550;40.588;49.684;2023-03-30T00:34:19;100377.28;;;9.67;100.00
60371;BME280;48550;40.588;49.684;2023-03-30T00:36:45;100369.38;;;9.37;100.00
60371;BME280;48550;40.588;49.684;2023-03-30T00:39:14;100375.19;;;9.34;100.00
60371;BME280;48550;40.588;49.684;2023-03-30T00:41:43;100367.72;;;9.59;100.00
60371;BME280;48550;40.588;49.684;2023-03-30T00:47:14;100371.31;;;9.65;100.00
60371;BME280;48550;40.588;49.684;2023-03-30T00:49:40;100372.13;;;9.65;100.00
60371;BME280;48550;40.588;49.684;2023-03-30T00:52:09;100369.59;;;9.70;100.00
60371;BME280;48550;40.588;49.684;2023-03-30T00:54:37;100374.94;;;9.82;100.00
60371;BME280;48550;40.588;49.684;2023-03-30T00:57:05;100378.38;;;10.06;100.00
60371;BME280;48550;40.588;49.684;2023-03-30T00:59:31;100384.41;;;10.13;100.00
60371;BME280;48550;40.588;49.684;2023-03-30T01:01:56;100391.09;;;9.99;100.00
60371;BME280;48550;40.588;49.684;2023-03-30T01:04:23;100390.91;;;9.77;100.00
60371;BME280;48550;40.588;49.684;2023-03-30T01:06:50;100397.44;;;9.69;100.00
60371;BME280;48550;40.588;49.684;2023-03-30T01:09:17;100402.31;;;9.84;100.00
60371;BME280;48550;40.588;49.684;2023-03-30T01:11:44;100401.25;;;9.97;100.00
60371;BME280;48550;40.588;49.684;2023-03-30T01:14:11;100396.72;;;9.85;100.00
60371;BME280;48550;40.588;49.684;2023-03-30T01:17:03;100381.94;;;9.71;100.00
60371;BME280;48550;40.588;49.684;2023-03-30T01:20:07;100364.09;;;9.88;100.00
60371;BME280;48550;40.588;49.684;2023-03-30T01:25:55;100385.44;;;9.72;100.00
60371;BME280;48550;40.588;49.684;2023-03-30T01:28:30;100382.63;;;9.90;100.00
60371;BME280;48550;40.588;49.684;2023-03-30T01:44:36;100373.28;;;10.44;100.00
60371;BME280;48550;40.588;49.684;2023-03-30T01:50:08;100367.38;;;10.19;100.00
60371;BME280;48550;40.588;49.684;2023-03-30T01:52:39;100387.03;;;10.48;100.00
60371;BME280;48550;40.588;49.684;2023-03-30T01:55:17;100394.25;;;10.76;100.00
60371;BME280;48550;40.588;49.684;2023-03-30T02:00:24;100377.56;;;10.05;100.00
60371;BME280;48550;40.588;49.684;2023-03-30T02:02:59;100381.56;;;9.91;100.00
60371;BME280;48550;40.588;49.684;2023-03-30T02:05:27;100388.81;;;9.79;100.00
60371;BME280;48550;40.588;49.684;2023-03-30T02:08:05;100384.16;;;9.74;100.00
60371;BME280;48550;40.588;49.684;2023-03-30T02:10:33;100384.59;;;9.95;100.00
60371;BME280;48550;40.588;49.684;2023-03-30T02:13:01;100390.22;;;10.33;100.00
60371;BME280;48550;40.588;49.684;2023-03-30T02:15:34;100410.84;;;10.44;100.00
60371;BME280;48550;40.588;49.684;2023-03-30T02:18:00;100418.78;;;10.39;100.00
60371;BME280;48550;40.588;49.684;2023-03-30T02:20:28;100413.25;;;10.06;100.00
60371;BME280;48550;40.588;49.684;2023-03-30T02:22:54;100406.63;;;9.97;100.00
60371;BME280;48550;40.588;49.684;2023-03-30T02:25:22;100403.94;;;9.97;100.00
60371;BME280;48550;40.588;49.684;2023-03-30T02:27:48;100409.28;;;9.97;100.00
60371;BME280;48550;40.588;49.684;2023-03-30T02:30:14;100409.13;;;10.15;100.00
60371;BME280;48550;40.588;49.684;2023-03-30T02:32:44;100408.56;;;10.13;100.00
60371;BME280;48550;40.588;49.684;2023-03-30T02:38:13;100407.66;;;9.96;100.00
60371;BME280;48550;40.588;49.684;2023-03-30T02:46:29;100412.56;;;9.87;100.00
60371;BME280;48550;40.588;49.684;2023-03-30T02:49:14;100420.97;;;9.91;100.00
60371;BME280;48550;40.588;49.684;2023-03-30T02:51:47;100429.19;;;10.12;100.00
60371;BME280;48550;40.588;49.684;2023-03-30T02:54:39;100432.34;;;10.21;100.00
60371;BME280;48550;40.588;49.684;2023-03-30T03:02:28;100431.97;;;10.29;100.00
60371;BME280;48550;40.588;49.684;2023-03-30T03:04:56;100451.09;;;10.33;100.00
60371;BME280;48550;40.588;49.684;2023-03-30T03:07:23;100449.81;;;10.35;100.00
60371;BME280;48550;40.588;49.684;2023-03-30T03:09:49;100447.63;;;10.21;100.00
60371;BME280;48550;40.588;49.684;2023-03-30T03:12:15;100447.03;;;10.07;100.00
60371;BME280;48550;40.588;49.684;2023-03-30T03:14:41;100446.81;;;10.20;100.00
60371;BME280;48550;40.588;49.684;2023-03-30T03:17:07;100436.53;;;10.17;100.00
60371;BME280;48550;40.588;49.684;2023-03-30T03:19:33;100452.28;;;10.13;100.00
60371;BME280;48550;40.588;49.684;2023-03-30T03:21:59;100459.19;;;9.98;100.00
60371;BME280;48550;40.588;49.684;2023-03-30T03:24:25;100459.06;;;9.93;100.00
60371;BME280;48550;40.588;49.684;2023-03-30T03:26:50;100453.47;;;10.06;100.00
60371;BME280;48550;40.588;49.684;2023-03-30T03:29:17;100452.75;;;10.10;100.00
60371;BME280;48550;40.588;49.684;2023-03-30T03:31:42;100461.25;;;10.07;100.00
60371;BME280;48550;40.588;49.684;2023-03-30T03:34:08;100465.91;;;10.12;100.00
60371;BME280;48550;40.588;49.684;2023-03-30T03:36:34;100476.31;;;9.97;100.00
60371;BME280;48550;40.588;49.684;2023-03-30T03:38:59;100480.50;;;10.28;100.00
60371;BME280;48550;40.588;49.684;2023-03-30T03:41:25;100491.22;;;10.16;100.00
60371;BME280;48550;40.588;49.684;2023-03-30T03:43:51;100493.69;;;10.06;100.00
60371;BME280;48550;40.588;49.684;2023-03-30T03:46:16;100484.13;;;9.86;100.00
60371;BME280;48550;40.588;49.684;2023-03-30T03:48:42;100487.47;;;10.17;100.00
60371;BME280;48550;40.588;49.684;2023-03-30T03:51:08;100486.34;;;10.25;100.00
60371;BME280;48550;40.588;49.684;2023-03-30T03:53:34;100491.34;;;10.21;100.00
60371;BME280;48550;40.588;49.684;2023-03-30T03:56:00;100505.69;;;10.15;100.00
60371;BME280;48550;40.588;49.684;2023-03-30T03:58:26;100502.31;;;10.08;100.00
60371;BME280;48550;40.588;49.684;2023-03-30T04:00:57;100512.91;;;10.38;100.00
60371;BME280;48550;40.588;49.684;2023-03-30T04:03:23;100524.22;;;10.28;100.00
60371;BME280;48550;40.588;49.684;2023-03-30T04:05:49;100526.44;;;9.84;100.00
60371;BME280;48550;40.588;49.684;2023-03-30T04:08:14;100531.69;;;9.91;100.00
60371;BME280;48550;40.588;49.684;2023-03-30T04:10:42;100544.88;;;9.51;100.00
60371;BME280;48550;40.588;49.684;2023-03-30T04:13:08;100554.63;;;9.34;100.00
60371;BME280;48550;40.588;49.684;2023-03-30T04:15:34;100565.50;;;9.09;100.00
60371;BME280;48550;40.588;49.684;2023-03-30T04:18:00;100578.88;;;8.90;100.00
60371;BME280;48550;40.588;49.684;2023-03-30T04:20:27;100593.63;;;9.00;100.00
60371;BME280;48550;40.588;49.684;2023-03-30T04:22:54;100599.16;;;9.16;100.00
60371;BME280;48550;40.588;49.684;2023-03-30T04:25:21;100614.88;;;9.13;100.00
60371;BME280;48550;40.588;49.684;2023-03-30T04:27:53;100642.38;;;9.02;100.00
60371;BME280;48550;40.588;49.684;2023-03-30T04:30:19;100652.50;;;9.18;100.00
60371;BME280;48550;40.588;49.684;2023-03-30T04:32:47;100676.72;;;8.86;100.00
60371;BME280;48550;40.588;49.684;2023-03-30T04:35:19;100683.78;;;8.81;100.00
60371;BME280;48550;40.588;49.684;2023-03-30T04:37:45;100716.69;;;8.81;100.00
60371;BME280;48550;40.588;49.684;2023-03-30T04:40:11;100717.91;;;8.85;100.00
60371;BME280;48550;40.588;49.684;2023-03-30T04:42:37;100733.38;;;8.58;100.00
60371;BME280;48550;40.588;49.684;2023-03-30T04:45:07;100736.44;;;8.37;100.00
60371;BME280;48550;40.588;49.684;2023-03-30T04:47:33;100746.31;;;8.37;100.00
60371;BME280;48550;40.588;49.684;2023-03-30T04:49:59;100747.03;;;8.50;100.00
60371;BME280;48550;40.588;49.684;2023-03-30T04:52:26;100756.19;;;8.36;100.00
60371;BME280;48550;40.588;49.684;2023-03-30T04:54:52;100779.50;;;8.22;100.00
60371;BME280;48550;40.588;49.684;2023-03-30T04:57:18;100781.97;;;8.24;100.00
60371;BME280;48550;40.588;49.684;2023-03-30T04:59:44;100785.47;;;8.24;100.00
60371;BME280;48550;40.588;49.684;2023-03-30T05:02:11;100791.84;;;8.17;100.00
60371;BME280;48550;40.588;49.684;2023-03-30T05:04:37;100805.38;;;8.28;100.00
60371;BME280;48550;40.588;49.684;2023-03-30T05:07:04;100820.19;;;8.31;100.00
60371;BME280;48550;40.588;49.684;2023-03-30T05:09:31;100835.63;;;8.29;100.00
60371;BME280;48550;40.588;49.684;2023-03-30T05:11:56;100846.25;;;8.42;100.00
60371;BME280;48550;40.588;49.684;2023-03-30T05:14:22;100844.63;;;8.41;100.00
60371;BME280;48550;40.588;49.684;2023-03-30T05:16:48;100853.13;;;8.25;100.00
60371;BME280;48550;40.588;49.684;2023-03-30T05:19:14;100862.00;;;8.19;100.00
60371;BME280;48550;40.588;49.684;2023-03-30T05:21:39;100868.13;;;8.26;100.00
60371;BME280;48550;40.588;49.684;2023-03-30T05:24:06;100881.38;;;8.52;100.00
60371;BME280;48550;40.588;49.684;2023-03-30T05:26:32;100881.63;;;8.44;100.00
60371;BME280;48550;40.588;49.684;2023-03-30T05:28:57;100891.53;;;8.44;100.00
60371;BME280;48550;40.588;49.684;2023-03-30T05:31:23;100905.53;;;8.39;100.00
60371;BME280;48550;40.588;49.684;2023-03-30T05:33:49;100901.19;;;8.45;100.00
60371;BME280;48550;40.588;49.684;2023-03-30T05:36:17;100912.66;;;8.52;100.00
60371;BME280;48550;40.588;49.684;2023-03-30T05:38:43;100908.06;;;8.66;100.00
60371;BME280;48550;40.588;49.684;2023-03-30T05:41:09;100915.03;;;8.67;100.00
60371;BME280;48550;40.588;49.684;2023-03-30T05:43:35;100921.91;;;8.87;100.00
60371;BME280;48550;40.588;49.684;2023-03-30T05:46:01;100935.78;;;8.78;100.00
60371;BME280;48550;40.588;49.684;2023-03-30T05:48:29;100941.47;;;8.88;100.00
60371;BME280;48550;40.588;49.684;2023-03-30T05:50:55;100939.00;;;8.93;100.00
60371;BME280;48550;40.588;49.684;2023-03-30T05:53:21;100940.81;;;8.99;100.00
60371;BME280;48550;40.588;49.684;2023-03-30T05:55:48;100936.59;;;9.10;100.00
60371;BME280;48550;40.588;49.684;2023-03-30T05:58:15;100930.44;;;9.09;100.00
60371;BME280;48550;40.588;49.684;2023-03-30T06:00:42;100943.75;;;9.16;100.00
60371;BME280;48550;40.588;49.684;2023-03-30T06:03:09;100944.88;;;9.33;100.00
60371;BME280;48550;40.588;49.684;2023-03-30T06:05:39;100952.22;;;9.63;100.00
60371;BME280;48550;40.588;49.684;2023-03-30T06:08:09;100959.44;;;9.62;100.00
60371;BME280;48550;40.588;49.684;2023-03-30T06:10:36;100962.47;;;9.72;100.00
60371;BME280;48550;40.588;49.684;2023-03-30T06:13:02;100966.88;;;9.85;100.00
60371;BME280;48550;40.588;49.684;2023-03-30T06:15:29;100973.22;;;9.91;100.00
60371;BME280;48550;40.588;49.684;2023-03-30T06:17:54;100971.88;;;10.00;100.00
60371;BME280;48550;40.588;49.684;2023-03-30T06:20:20;100977.75;;;9.90;100.00
60371;BME280;48550;40.588;49.684;2023-03-30T06:22:49;100980.75;;;10.18;100.00
60371;BME280;48550;40.588;49.684;2023-03-30T06:25:16;100976.28;;;10.12;100.00
60371;BME280;48550;40.588;49.684;2023-03-30T06:27:45;100981.78;;;10.17;100.00
60371;BME280;48550;40.588;49.684;2023-03-30T06:30:12;100975.88;;;10.52;100.00
60371;BME280;48550;40.588;49.684;2023-03-30T06:32:38;100980.09;;;10.60;100.00
60371;BME280;48550;40.588;49.684;2023-03-30T06:35:04;100980.47;;;10.63;100.00
60371;BME280;48550;40.588;49.684;2023-03-30T06:37:31;100978.16;;;10.67;100.00
60371;BME280;48550;40.588;49.684;2023-03-30T06:39:57;100984.56;;;10.66;100.00
60371;BME280;48550;40.588;49.684;2023-03-30T06:42:25;100985.03;;;10.44;100.00
60371;BME280;48550;40.588;49.684;2023-03-30T06:44:52;100998.84;;;10.78;100.00
60371;BME280;48550;40.588;49.684;2023-03-30T06:47:18;101003.31;;;10.84;100.00
60371;BME280;48550;40.588;49.684;2023-03-30T06:49:44;101002.88;;;10.87;100.00
60371;BME280;48550;40.588;49.684;2023-03-30T06:52:10;101005.91;;;10.91;100.00
60371;BME280;48550;40.588;49.684;2023-03-30T06:54:37;101011.84;;;10.81;100.00
60371;BME280;48550;40.588;49.684;2023-03-30T06:57:03;101001.19;;;10.74;100.00
60371;BME280;48550;40.588;49.684;2023-03-30T06:59:29;101011.38;;;10.84;100.00
60371;BME280;48550;40.588;49.684;2023-03-30T07:01:56;101010.38;;;10.67;100.00
60371;BME280;48550;40.588;49.684;2023-03-30T07:04:22;101014.25;;;10.53;100.00
60371;BME280;48550;40.588;49.684;2023-03-30T07:06:47;101014.41;;;10.58;100.00
60371;BME280;48550;40.588;49.684;2023-03-30T07:09:13;101010.09;;;10.57;100.00
60371;BME280;48550;40.588;49.684;2023-03-30T07:11:39;101015.00;;;10.60;100.00
60371;BME280;48550;40.588;49.684;2023-03-30T07:14:04;101029.69;;;10.57;100.00
60371;BME280;48550;40.588;49.684;2023-03-30T07:16:30;101020.78;;;10.75;100.00
60371;BME280;48550;40.588;49.684;2023-03-30T07:18:56;101023.78;;;10.67;100.00
60371;BME280;48550;40.588;49.684;2023-03-30T07:21:21;101040.22;;;10.89;100.00
60371;BME280;48550;40.588;49.684;2023-03-30T07:23:47;101030.75;;;10.86;100.00
60371;BME280;48550;40.588;49.684;2023-03-30T07:26:15;101055.34;;;11.01;100.00
60371;BME280;48550;40.588;49.684;2023-03-30T07:28:41;101043.41;;;11.16;100.00
60371;BME280;48550;40.588;49.684;2023-03-30T07:31:09;101041.81;;;11.26;100.00
60371;BME280;48550;40.588;49.684;2023-03-30T07:33:37;101046.41;;;11.49;100.00
60371;BME280;48550;40.588;49.684;2023-03-30T07:36:03;101041.97;;;11.43;100.00
60371;BME280;48550;40.588;49.684;2023-03-30T07:38:29;101044.31;;;10.91;100.00
60371;BME280;48550;40.588;49.684;2023-03-30T07:40:55;101052.81;;;11.06;100.00
60371;BME280;48550;40.588;49.684;2023-03-30T07:43:21;101058.41;;;11.05;100.00
60371;BME280;48550;40.588;49.684;2023-03-30T07:45:46;101065.47;;;11.48;100.00
60371;BME280;48550;40.588;49.684;2023-03-30T07:48:12;101065.09;;;11.44;100.00
60371;BME280;48550;40.588;49.684;2023-03-30T07:50:38;101077.16;;;11.53;100.00
60371;BME280;48550;40.588;49.684;2023-03-30T07:53:03;101080.66;;;11.54;100.00
60371;BME280;48550;40.588;49.684;2023-03-30T07:55:29;101073.50;;;11.36;100.00
60371;BME280;48550;40.588;49.684;2023-03-30T07:57:55;101075.00;;;11.32;100.00
60371;BME280;48550;40.588;49.684;2023-03-30T08:00:22;101084.63;;;11.51;100.00
60371;BME280;48550;40.588;49.684;2023-03-30T08:02:48;101093.94;;;11.37;100.00
60371;BME280;48550;40.588;49.684;2023-03-30T08:05:15;101096.66;;;11.49;100.00
60371;BME280;48550;40.588;49.684;2023-03-30T08:07:42;101098.19;;;11.56;100.00
60371;BME280;48550;40.588;49.684;2023-03-30T08:10:09;101087.75;;;11.36;100.00
60371;BME280;48550;40.588;49.684;2023-03-30T08:12:35;101104.44;;;11.08;100.00
60371;BME280;48550;40.588;49.684;2023-03-30T08:15:02;101119.81;;;11.01;100.00
60371;BME280;48550;40.588;49.684;2023-03-30T08:17:28;101116.69;;;10.49;100.00
60371;BME280;48550;40.588;49.684;2023-03-30T08:19:53;101122.66;;;10.52;100.00
60371;BME280;48550;40.588;49.684;2023-03-30T08:22:21;101133.63;;;10.25;100.00
60371;BME280;48550;40.588;49.684;2023-03-30T08:24:47;101140.53;;;10.08;100.00
60371;BME280;48550;40.588;49.684;2023-03-30T08:27:12;101139.19;;;10.24;100.00
60371;BME280;48550;40.588;49.684;2023-03-30T08:29:38;101165.13;;;10.05;100.00
60371;BME280;48550;40.588;49.684;2023-03-30T08:32:05;101153.28;;;10.12;100.00
60371;BME280;48550;40.588;49.684;2023-03-30T08:34:31;101153.91;;;10.64;100.00
60371;BME280;48550;40.588;49.684;2023-03-30T08:36:57;101167.06;;;10.23;100.00
60371;BME280;48550;40.588;49.684;2023-03-30T08:39:24;101160.97;;;10.09;100.00
60371;BME280;48550;40.588;49.684;2023-03-30T08:42:02;101177.34;;;10.26;100.00
60371;BME280;48550;40.588;49.684;2023-03-30T08:44:35;101169.19;;;10.39;100.00
60371;BME280;48550;40.588;49.684;2023-03-30T08:47:04;101170.56;;;10.23;100.00
60371;BME280;48550;40.588;49.684;2023-03-30T08:49:40;101183.28;;;10.77;100.00
60371;BME280;48550;40.588;49.684;2023-03-30T08:52:12;101184.78;;;10.92;100.00
60371;BME280;48550;40.588;49.684;2023-03-30T08:54:43;101180.59;;;10.59;100.00
60371;BME280;48550;40.588;49.684;2023-03-30T09:02:36;101203.53;;;10.55;100.00
60371;BME280;48550;40.588;49.684;2023-03-30T09:05:42;101194.78;;;10.10;100.00
60371;BME280;48550;40.588;49.684;2023-03-30T09:08:18;101210.19;;;10.53;100.00
60371;BME280;48550;40.588;49.684;2023-03-30T09:10:51;101209.53;;;10.75;100.00
60371;BME280;48550;40.588;49.684;2023-03-30T09:13:22;101212.84;;;10.53;100.00
60371;BME280;48550;40.588;49.684;2023-03-30T09:15:53;101188.03;;;10.01;100.00
60371;BME280;48550;40.588;49.684;2023-03-30T09:20:51;101197.06;;;10.06;100.00
60371;BME280;48550;40.588;49.684;2023-03-30T09:23:17;101202.44;;;10.06;100.00
60371;BME280;48550;40.588;49.684;2023-03-30T09:25:54;101214.00;;;9.75;100.00
60371;BME280;48550;40.588;49.684;2023-03-30T09:28:33;101209.97;;;9.91;100.00
60371;BME280;48550;40.588;49.684;2023-03-30T09:31:12;101216.13;;;9.98;100.00
60371;BME280;48550;40.588;49.684;2023-03-30T09:36:37;101233.38;;;10.09;100.00
60371;BME280;48550;40.588;49.684;2023-03-30T09:39:08;101247.56;;;9.84;100.00
60371;BME280;48550;40.588;49.684;2023-03-30T09:41:46;101224.38;;;9.97;100.00
60371;BME280;48550;40.588;49.684;2023-03-30T09:44:50;101225.31;;;10.09;100.00
60371;BME280;48550;40.588;49.684;2023-03-30T09:47:28;101201.19;;;9.77;100.00
60371;BME280;48550;40.588;49.684;2023-03-30T09:50:10;101204.06;;;9.82;100.00
60371;BME280;48550;40.588;49.684;2023-03-30T09:52:39;101197.56;;;9.97;100.00
60371;BME280;48550;40.588;49.684;2023-03-30T09:57:50;101235.28;;;9.57;100.00
60371;BME280;48550;40.588;49.684;2023-03-30T10:00:28;101253.38;;;9.75;100.00
60371;BME280;48550;40.588;49.684;2023-03-30T10:03:03;101216.84;;;9.36;100.00
60371;BME280;48550;40.588;49.684;2023-03-30T10:05:32;101235.13;;;9.45;100.00
60371;BME280;48550;40.588;49.684;2023-03-30T10:08:01;101248.53;;;9.45;100.00
60371;BME280;48550;40.588;49.684;2023-03-30T10:10:38;101239.66;;;9.51;100.00
60371;BME280;48550;40.588;49.684;2023-03-30T10:15:36;101213.81;;;9.19;100.00
60371;BME280;48550;40.588;49.684;2023-03-30T10:20:46;101206.28;;;8.76;100.00
60371;BME280;48550;40.588;49.684;2023-03-30T10:23:17;101227.91;;;8.68;100.00
60371;BME280;48550;40.588;49.684;2023-03-30T10:25:45;101214.13;;;8.65;100.00
60371;BME280;48550;40.588;49.684;2023-03-30T10:28:26;101228.09;;;8.80;100.00
60371;BME280;48550;40.588;49.684;2023-03-30T10:31:04;101229.13;;;8.85;100.00
60371;BME280;48550;40.588;49.684;2023-03-30T10:33:38;101217.63;;;8.58;100.00
60371;BME280;48550;40.588;49.684;2023-03-30T10:36:05;101242.53;;;8.59;100.00
60371;BME280;48550;40.588;49.684;2023-03-30T10:38:32;101235.94;;;8.62;100.00
60371;BME280;48550;40.588;49.684;2023-03-30T10:41:02;101230.19;;;8.58;100.00
60371;BME280;48550;40.588;49.684;2023-03-30T10:43:31;101255.91;;;8.52;100.00
60371;BME280;48550;40.588;49.684;2023-03-30T10:46:06;101206.72;;;8.67;100.00
60371;BME280;48550;40.588;49.684;2023-03-30T10:48:47;101217.81;;;8.70;100.00
60371;BME280;48550;40.588;49.684;2023-03-30T10:56:51;101248.88;;;9.04;100.00
60371;BME280;48550;40.588;49.684;2023-03-30T11:00:11;101278.63;;;9.41;100.00
60371;BME280;48550;40.588;49.684;2023-03-30T11:02:58;101233.81;;;9.16;100.00
60371;BME280;48550;40.588;49.684;2023-03-30T11:05:30;101267.22;;;8.94;100.00
60371;BME280;48550;40.588;49.684;2023-03-30T11:11:17;101246.00;;;8.73;100.00
60371;BME280;48550;40.588;49.684;2023-03-30T11:13:50;101267.22;;;8.81;100.00
60371;BME280;48550;40.588;49.684;2023-03-30T11:16:23;101273.41;;;8.62;100.00
60371;BME280;48550;40.588;49.684;2023-03-30T11:24:22;101297.06;;;8.51;100.00
60371;BME280;48550;40.588;49.684;2023-03-30T11:29:48;101282.44;;;8.47;100.00
60371;BME280;48550;40.588;49.684;2023-03-30T11:35:56;101291.09;;;8.49;100.00
60371;BME280;48550;40.588;49.684;2023-03-30T11:38:14;101305.91;;;8.72;100.00
60371;BME280;48550;40.588;49.684;2023-03-30T11:40:54;101307.97;;;8.70;100.00
60371;BME280;48550;40.588;49.684;2023-03-30T11:43:23;101317.84;;;8.63;100.00
60371;BME280;48550;40.588;49.684;2023-03-30T11:46:13;101349.75;;;8.44;100.00
60371;BME280;48550;40.588;49.684;2023-03-30T11:49:04;101346.84;;;8.39;100.00
60371;BME280;48550;40.588;49.684;2023-03-30T11:54:45;101337.00;;;8.59;100.00
60371;BME280;48550;40.588;49.684;2023-03-30T11:57:36;101336.38;;;8.90;100.00
60371;BME280;48550;40.588;49.684;2023-03-30T12:00:41;101312.50;;;8.76;100.00
60371;BME280;48550;40.588;49.684;2023-03-30T12:03:26;101325.88;;;8.89;100.00
60371;BME280;48550;40.588;49.684;2023-03-30T12:06:32;101318.47;;;8.58;100.00
60371;BME280;48550;40.588;49.684;2023-03-30T12:11:47;101338.41;;;8.42;100.00
60371;BME280;48550;40.588;49.684;2023-03-30T12:14:49;101342.75;;;8.43;100.00
60371;BME280;48550;40.588;49.684;2023-03-30T12:20:24;101345.22;;;8.51;100.00
60371;BME280;48550;40.588;49.684;2023-03-30T12:28:12;101335.56;;;8.57;100.00
60371;BME280;48550;40.588;49.684;2023-03-30T12:30:56;101372.00;;;8.65;100.00
60371;BME280;48550;40.588;49.684;2023-03-30T12:33:43;101347.28;;;8.43;100.00
60371;BME280;48550;40.588;49.684;2023-03-30T12:36:30;101330.19;;;8.50;100.00
60371;BME280;48550;40.588;49.684;2023-03-30T12:38:59;101334.53;;;8.51;100.00
60371;BME280;48550;40.588;49.684;2023-03-30T12:41:48;101333.06;;;8.42;100.00
60371;BME280;48550;40.588;49.684;2023-03-30T12:44:32;101317.22;;;8.47;100.00
60371;BME280;48550;40.588;49.684;2023-03-30T12:49:49;101327.72;;;8.49;100.00
60371;BME280;48550;40.588;49.684;2023-03-30T13:02:59;101343.69;;;8.22;100.00
60371;BME280;48550;40.588;49.684;2023-03-30T13:05:37;101358.66;;;8.10;100.00
60371;BME280;48550;40.588;49.684;2023-03-30T13:08:16;101355.97;;;8.10;100.00
60371;BME280;48550;40.588;49.684;2023-03-30T13:10:43;101350.28;;;8.20;100.00
60371;BME280;48550;40.588;49.684;2023-03-30T13:16:10;101349.44;;;8.19;100.00
60371;BME280;48550;40.588;49.684;2023-03-30T13:18:52;101346.94;;;8.11;100.00
60371;BME280;48550;40.588;49.684;2023-03-30T13:21:23;101341.97;;;8.02;100.00
60371;BME280;48550;40.588;49.684;2023-03-30T13:24:02;101341.34;;;8.06;100.00
60371;BME280;48550;40.588;49.684;2023-03-30T13:26:39;101339.53;;;8.13;100.00
60371;BME280;48550;40.588;49.684;2023-03-30T13:29:07;101332.53;;;8.12;100.00
60371;BME280;48550;40.588;49.684;2023-03-30T13:32:07;101316.28;;;8.14;100.00
60371;BME280;48550;40.588;49.684;2023-03-30T13:39:42;101315.25;;;8.08;100.00
60371;BME280;48550;40.588;49.684;2023-03-30T13:47:36;101323.03;;;8.03;100.00
60371;BME280;48550;40.588;49.684;2023-03-30T13:50:15;101344.22;;;8.05;100.00
60371;BME280;48550;40.588;49.684;2023-03-30T13:52:45;101361.72;;;8.07;100.00
60371;BME280;48550;40.588;49.684;2023-03-30T13:55:34;101366.63;;;8.04;100.00
60371;BME280;48550;40.588;49.684;2023-03-30T13:58:28;101373.84;;;8.10;100.00
60371;BME280;48550;40.588;49.684;2023-03-30T14:03:30;101388.88;;;8.11;100.00
60371;BME280;48550;40.588;49.684;2023-03-30T14:06:23;101373.88;;;8.16;100.00
60371;BME280;48550;40.588;49.684;2023-03-30T14:08:49;101386.44;;;8.16;100.00
60371;BME280;48550;40.588;49.684;2023-03-30T14:14:35;101366.88;;;8.09;100.00
60371;BME280;48550;40.588;49.684;2023-03-30T14:17:12;101383.13;;;8.14;100.00
60371;BME280;48550;40.588;49.684;2023-03-30T14:20:11;101375.72;;;8.16;100.00
60371;BME280;48550;40.588;49.684;2023-03-30T14:22:37;101396.56;;;8.20;100.00
60371;BME280;48550;40.588;49.684;2023-03-30T14:25:21;101406.44;;;8.26;100.00
60371;BME280;48550;40.588;49.684;2023-03-30T14:27:46;101401.16;;;8.33;100.00
60371;BME280;48550;40.588;49.684;2023-03-30T14:30:19;101395.00;;;8.39;100.00
60371;BME280;48550;40.588;49.684;2023-03-30T14:32:45;101390.06;;;8.36;100.00
60371;BME280;48550;40.588;49.684;2023-03-30T14:35:15;101379.38;;;8.43;100.00
60371;BME280;48550;40.588;49.684;2023-03-30T14:37:42;101389.25;;;8.42;100.00
60371;BME280;48550;40.588;49.684;2023-03-30T14:40:19;101386.16;;;8.45;100.00
60371;BME280;48550;40.588;49.684;2023-03-30T14:42:46;101357.13;;;8.42;100.00
60371;BME280;48550;40.588;49.684;2023-03-30T14:45:15;101388.81;;;8.39;100.00
60371;BME280;48550;40.588;49.684;2023-03-30T14:47:44;101374.84;;;8.43;100.00
60371;BME280;48550;40.588;49.684;2023-03-30T14:50:13;101348.91;;;8.37;100.00
60371;BME280;48550;40.588;49.684;2023-03-30T14:52:42;101361.28;;;8.51;100.00
60371;BME280;48550;40.588;49.684;2023-03-30T14:55:21;101369.09;;;8.59;100.00
60371;BME280;48550;40.588;49.684;2023-03-30T14:57:48;101384.72;;;8.43;100.00
60371;BME280;48550;40.588;49.684;2023-03-30T15:00:17;101391.94;;;8.49;100.00